Time,TemperatureF,DewpointF,PressureIn,WindDirection,WindDirectionDegrees,WindSpeedMPH,WindSpeedGustMPH,Humidity,HourlyPrecipIn,Conditions,Clouds,dailyrainin,SoftwareType,DateUTC
2013-01-19 01:00:00,29.1,28.6,30.42,North,355,0.0,0.0,98,0.00,,---,0.00,VWS V12.07,2013-01-19 06:00:00,
2013-01-19 01:30:00,28.5,28.0,30.41,North,355,0.0,0.0,98,0.00,,---,0.00,VWS V12.07,2013-01-19 06:30:00,
2013-01-19 02:00:00,28.4,27.9,30.41,North,355,0.0,0.0,98,0.00,,---,0.00,VWS V12.07,2013-01-19 07:00:00,
2013-01-19 02:30:00,27.6,26.9,30.41,North,355,0.0,0.0,97,0.00,,---,0.00,VWS V12.07,2013-01-19 07:30:00,
2013-01-19 03:00:00,27.3,26.8,30.41,North,355,0.0,0.0,98,0.00,,---,0.00,VWS V12.07,2013-01-19 08:00:00,
2013-01-19 03:30:00,27.2,26.7,30.42,North,355,0.0,0.0,98,0.00,,---,0.00,VWS V12.07,2013-01-19 08:30:00,
2013-01-19 04:00:00,26.7,26.2,30.41,North,355,0.0,0.0,98,0.00,,---,0.00,VWS V12.07,2013-01-19 09:00:00,
2013-01-19 04:30:00,27.2,26.7,30.42,North,355,0.0,0.0,98,0.00,,---,0.00,VWS V12.07,2013-01-19 09:30:00,
2013-01-19 05:00:00,26.9,26.4,30.42,North,355,0.0,0.0,98,0.00,,---,0.00,VWS V12.07,2013-01-19 10:00:00,
2013-01-19 05:30:00,26.3,25.6,30.41,North,355,0.0,0.0,97,0.00,,---,0.00,VWS V12.07,2013-01-19 10:30:00,
2013-01-19 06:00:00,26.7,26.2,30.41,North,355,0.0,0.0,98,0.00,,---,0.00,VWS V12.07,2013-01-19 11:00:00,
2013-01-19 08:00:00,25.3,24.6,30.42,North,355,0.0,0.0,97,0.00,,---,0.00,VWS V12.07,2013-01-19 13:00:00,
2013-01-19 08:30:00,25.4,24.7,30.43,North,355,0.0,0.0,97,0.00,,---,0.00,VWS V12.07,2013-01-19 13:30:00,
2013-01-19 09:00:00,25.8,25.1,30.43,North,355,0.0,0.0,97,0.00,,---,0.00,VWS V12.07,2013-01-19 14:00:00,
2013-01-19 09:30:00,28.5,28.2,30.44,North,355,0.0,0.0,99,0.00,,---,0.00,VWS V12.07,2013-01-19 14:30:00,
2013-01-19 10:00:00,30.7,30.5,30.43,North,355,0.0,0.0,99,0.00,,---,0.00,VWS V12.07,2013-01-19 15:00:00,
2013-01-19 10:30:00,33.4,33.4,30.43,North,355,0.0,0.0,100,0.00,,---,0.00,VWS V12.07,2013-01-19 15:30:00,
2013-01-19 11:00:00,37.5,37.5,30.40,North,355,0.0,0.0,100,0.00,,---,0.00,VWS V12.07,2013-01-19 16:00:00,
2013-01-19 11:30:00,42.6,38.1,30.38,North,355,0.0,0.0,84,0.00,,---,0.00,VWS V12.07,2013-01-19 16:30:00,
2013-01-19 12:00:00,45.8,33.5,30.35,WSW,238,0.0,3.0,62,0.00,,---,0.00,VWS V12.07,2013-01-19 17:00:00,
2013-01-19 12:30:00,47.7,30.0,30.32,SSW,205,2.0,3.0,50,0.00,,---,0.00,VWS V12.07,2013-01-19 17:30:00,
2013-01-19 13:00:00,49.9,29.4,30.29,NNW,340,0.0,3.0,45,0.00,,---,0.00,VWS V12.07,2013-01-19 18:00:00,
2013-01-19 13:30:00,50.8,32.8,30.26,SE,145,0.0,2.0,50,0.00,,---,0.00,VWS V12.07,2013-01-19 18:30:00,
2013-01-19 14:00:00,51.0,20.7,30.24,SW,217,3.0,5.0,30,0.01,,---,0.01,VWS V12.07,2013-01-19 19:00:00,
2013-01-19 14:30:00,53.1,26.2,30.22,NNE,13,0.0,3.0,35,0.01,,---,0.01,VWS V12.07,2013-01-19 19:30:00,
2013-01-19 15:00:00,53.3,21.0,30.21,SE,133,0.0,3.0,28,0.00,,---,0.01,VWS V12.07,2013-01-19 20:00:00,
2013-01-19 15:30:00,51.3,24.6,30.21,NE,53,0.0,4.0,35,0.00,,---,0.01,VWS V12.07,2013-01-19 20:30:00,
2013-01-19 17:00:00,48.3,29.5,30.20,NE,34,0.0,0.0,48,0.00,,---,0.01,VWS V12.07,2013-01-19 22:00:00,
2013-01-19 17:30:00,45.7,31.4,30.21,ENE,61,1.0,2.0,57,0.00,,---,0.01,VWS V12.07,2013-01-19 22:30:00,
2013-01-19 18:00:00,42.1,32.3,30.23,ENE,65,0.0,2.0,68,0.00,,---,0.01,VWS V12.07,2013-01-19 23:00:00,
2013-01-19 18:30:00,40.3,32.7,30.24,ENE,77,2.0,3.0,74,0.00,,---,0.01,VWS V12.07,2013-01-19 23:30:00,
2013-01-19 19:30:00,37.2,31.9,30.26,ENE,77,0.0,0.0,81,0.00,,---,0.01,VWS V12.07,2013-01-20 00:30:00,
2013-01-19 20:30:00,34.0,30.3,30.26,ENE,77,0.0,0.0,86,0.00,,---,0.01,VWS V12.07,2013-01-20 01:30:00,
2013-01-19 21:00:00,32.4,28.7,30.26,ENE,77,0.0,0.0,86,0.00,,---,0.01,VWS V12.07,2013-01-20 02:00:00,
2013-01-19 21:30:00,31.8,28.9,30.24,ENE,77,0.0,0.0,89,0.00,,---,0.01,VWS V12.07,2013-01-20 02:30:00,
2013-01-19 22:00:00,30.4,27.8,30.25,ENE,77,0.0,0.0,90,0.00,,---,0.01,VWS V12.07,2013-01-20 03:00:00,
2013-01-19 23:00:00,29.7,27.9,30.22,ENE,78,0.0,2.0,93,0.00,,---,0.01,VWS V12.07,2013-01-20 04:00:00,
2013-01-19 23:30:00,29.5,27.7,30.20,ENE,77,0.0,0.0,93,0.00,,---,0.01,VWS V12.07,2013-01-20 04:30:00,